Sheoaks, Australia
Current Conditions -  °F | °C
As of 3:38 PM on Friday 31 Oct 2014 (Local Time) from YMAV Reporting Station
Clear Clear  
Wind Chill: 91°   Ceiling: Unl
Heat Index: 91°   Visibility: 6mi
Dew Point: 34°   Wind: 24mph
Humidity: 13%   Direction: 330°NNW
Pressure: 29.53"   Gusts: 36mph
Location:  37.9°S, 144.12°E
Report Text: YMAV 310438Z AUTO 33021G31KT 9999 // NCD 33/01 Q1000
Loading
Personal Weather Stations






























Interactive Weather Map
Tropical Storm Tracking
New forecast layout! Learn more

10-Day Weather Forecast

Advertisements
Track Severe Weather on mobile